Alpha, California Weather observations

Data are for observation ending at time listed.
 Day   Time    Ave.   Ave.  Ave.  Vector   Max.   Stn.    Total    Solar   Ave.   Snow 
  of    of     Air    Rel.  Wind   Wind    Wind   Baro.  Precip.   Rad.    Soil   Depth
Year   Day     Temp.  Hum.  Speed  Dir.    Gust   Pres.                    Temp.       
2015   (PST)    F      %     mph   deg.    mph     mb.     in.     W/m2     F      in. 
---------------------------------------------------------------------------------------  
  64    8:40   40.9    14    4.2   157      8.0   792.6    0.00      45    999.0   14.1
  64    8:50   40.2    14    4.9   151      9.1   792.7    0.00      56    999.0   14.0
  64    9:00   40.9    14    4.9   158     10.8   792.7    0.00      37    999.0   13.8
  64    9:10   41.5    13    4.6   164      8.6   792.8    0.00     214    999.0   13.8
  64    9:20   42.2    12    4.3   161     13.2   792.8    0.00     358    999.0   13.9
  64    9:30   42.5    13    5.1   171     11.2   792.9    0.00     378    999.0   14.3
  64    9:40   43.0    13    4.5   176      9.1   793.0    0.00     398    999.0   14.4
  64    9:50   42.9    12    4.4   176     12.1   793.0    0.00     353    999.0   14.7
  64   10:00   42.6    13    5.1   175     11.5   793.1    0.00     126    999.0   14.5
  64   10:10   42.8    14    5.1   197     10.3   793.1    0.00      35    999.0   14.6
  64   10:20   42.7    13    5.1   187     11.8   793.1    0.00     173    999.0   44.1
  64   10:30   44.1    14    3.7   212      9.9   793.2    0.00     479    999.0   29.6
  64   10:40   44.7    13    4.2   194     11.6   793.3    0.00     492    999.0   15.1
  64   10:50   45.0    14    4.3   197     10.2   793.3    0.00     502    999.0   14.7
  64   11:00   45.0    14    3.6   223      8.2   793.3    0.00     512    999.0   15.0
  64   11:10   45.5    16    1.9   248      5.0   793.3    0.00     521    999.0  118.3
  64   11:20   45.5    16    2.7   242      7.9   793.3    0.00     529    999.0   28.5
  64   11:30   45.4    15    2.8   245      8.1   793.3    0.00     536    999.0   14.6
  64   11:40   45.7    15    3.7   228     10.4   793.4    0.00     540    999.0   14.7
  64   11:50   45.9    14    3.3   242      7.5   793.4    0.00     544    999.0   14.6
  64   12:00   45.9    15    4.0   237     10.6   793.4    0.00     545    999.0   43.8
  64   12:10   46.4    16    3.6   212      9.3   793.3    0.00     546    999.0   44.7
  64   12:20   46.6    15    3.3   244      9.6   793.3    0.00     545    999.0  117.2
  64   12:30   46.5    17    4.0   243      9.8   793.3    0.00     543    999.0   87.4
  64   12:40   46.3    20    4.6   223     11.5   793.2    0.00     538    999.0   72.1
  64   12:50   46.5    18    3.4   245      9.9   793.2    0.00     533    999.0   43.1
  64   13:00   46.0    22    4.0   245     11.4   793.1    0.00     526    999.0   13.1
  64   13:10   45.9    21    4.1   236     10.9   793.0    0.00     518    999.0   13.9
  64   13:20   46.5    24    3.3   228      8.2   792.9    0.00     508    999.0   13.8
  64   13:30   47.0    24    3.7   232      9.1   792.9    0.00     499    999.0   13.6
  64   13:40   46.5    24    3.5   226      7.8   792.9    0.00     487    999.0   13.4
  64   13:50   46.6    24    3.3   250      7.7   792.9    0.00     475    999.0   12.6
  64   14:00   46.7    25    2.6   264      7.7   792.9    0.00     461    999.0   27.2
  64   14:10   47.0    27    3.2   243     11.5   792.9    0.00     446    999.0   12.8
  64   14:20   47.0    28    3.9   223     11.5   792.8    0.00     429    999.0   13.3
  64   14:30   46.8    30    4.2   223     13.1   792.9    0.00     412    999.0   13.2
  64   14:40   46.8    31    3.9   235      9.3   792.9    0.00     395    999.0   13.2
  64   14:50   47.0    31    3.4   241     11.2   792.9    0.00     376    999.0   13.5
  64   15:00   46.5    31    3.1   258      8.0   792.9    0.00     357    999.0   13.0
  64   15:10   46.6    34    2.6   246      7.8   792.9    0.00     336    999.0   12.9
  64   15:20   46.7    36    3.5   240     11.2   792.9    0.00     314    999.0   12.7
  64   15:30   46.7    37    3.1   225      9.6   792.9    0.00     292    999.0   12.8
  64   15:40   46.3    40    3.4   222      7.9   792.9    0.00     269    999.0   13.6
  64   15:50   45.8    40    3.3   240      8.1   792.9    0.00     244    999.0   13.6
  64   16:00   44.9    45    2.4   255      5.4   792.9    0.00     220    999.0   13.0
  64   16:10   43.8    45    1.5   285      5.1   792.9    0.00      47    999.0   13.6
  64   16:20   43.6    47    2.7   237      6.9   792.9    0.00      23    999.0   13.8
  64   16:30   43.2    49    2.3   276      6.3   792.9    0.00      28    999.0   13.9
  64   16:40   42.9    51    1.4   273      3.7   792.9    0.00      25    999.0   13.9
  64   16:50   42.6    52    1.7   270      4.5   792.9    0.00      19    999.0   14.1
  64   17:00   42.1    52    1.2   268      3.3   792.9    0.00      39    999.0   14.1
  64   17:10   42.2    54    0.8   303      3.7   792.9    0.00      17    999.0   14.1
  64   17:20   42.1    54    1.9   306      6.3   793.0    0.00      22    999.0   14.2
  64   17:30   41.1    56    1.1   312      4.5   793.0    0.00      11    999.0   14.3
  64   17:40   40.6    57    1.2   318      2.6   793.0    0.00       9    999.0   14.5
  64   17:50   40.0    58    1.3   335      2.6   793.0    0.00       6    999.0   14.4
  64   18:00   39.2    60    1.3   341      2.9   793.1    0.00       3    999.0   14.4
  64   18:10   38.5    62    1.7   349      3.1   793.1    0.00       1    999.0   14.2
  64   18:20   38.3    63    2.2   359      3.3   793.1    0.00       0    999.0   14.2
  64   18:30   38.2    62    1.0    16      2.8   793.1    0.00       0    999.0   14.3
  64   18:40   38.9    55    1.6   105      2.6   793.1    0.00       0    999.0   14.7
  64   18:50   39.3    56    3.4   118      4.8   793.1    0.00       0    999.0   14.6
  64   19:00   38.3    62    4.2   115      5.5   793.0    0.00       0    999.0   14.5
  64   19:10   38.0    64    4.9   117      6.1   793.0    0.00       0    999.0   14.4
  64   19:20   38.4    60    4.1   125      6.1   793.1    0.00       0    999.0   14.5
  64   19:30   38.9    54    4.5   122      7.7   793.1    0.00       0    999.0   14.4
  64   19:40   39.5    49    4.8   127      7.7   793.1    0.00       0    999.0   14.4
  64   19:50   39.6    45    5.3   124     12.2   793.1    0.00       0    999.0   14.4
  64   20:00   39.6    42    5.9   117      9.6   793.2    0.00       0    999.0   14.3
  64   20:10   39.9    40    5.9   126     12.5   793.3    0.00       0    999.0   14.2
  64   20:20   39.2    38    3.7   111      6.5   793.2    0.00       0    999.0   14.3
  64   20:30   39.7    35    5.0   106      8.3   793.3    0.00       0    999.0   14.4
  64   20:40   40.2    34    5.0   110     10.0   793.3    0.00       0    999.0   14.2
  64   20:50   39.9    36    5.1   113      8.7   793.4    0.00       0    999.0   14.1
  64   21:00   39.8    35    5.4   117     10.0   793.4    0.00       0    999.0   14.4
  64   21:10   40.1    35    6.2   117     13.5   793.5    0.00       0    999.0   14.3
  64   21:20   40.3    33    6.2   116     11.2   793.6    0.00       0    999.0   14.3
  64   21:30   40.4    32    5.8   110     11.9   793.5    0.00       0    999.0   14.4
  64   21:40   40.2    31    4.8   127      7.9   793.6    0.00       0    999.0   14.3
  64   21:50   39.9    32    4.8   117      8.5   793.6    0.00       0    999.0   14.4
  64   22:00   39.8    31    5.0   120     10.2   793.6    0.00       0    999.0   14.3
  64   22:10   39.2    35    4.4   130      8.0   793.6    0.00       0    999.0   14.3
  64   22:20   39.3    33    4.3   122      7.3   793.6    0.00       0    999.0   14.4
  64   22:30   39.5    31    4.2   111      6.6   793.6    0.00       0    999.0   14.6
  64   22:40   39.6    29    3.0   121      7.2   793.5    0.00       0    999.0   14.5
  64   22:50   39.4    29    3.9   128      6.6   793.5    0.00       0    999.0   14.6
  64   23:00   39.8    28    5.4   114      8.1   793.5    0.00       0    999.0   14.5
  64   23:10   39.9    28    5.4   113      7.6   793.5    0.00       0    999.0   14.5
  64   23:20   39.6    28    4.9   106      7.6   793.5    0.00       0    999.0   14.5
  64   23:30   39.7    27    5.3   106      9.6   793.5    0.00       0    999.0   14.5
  64   23:40   39.8    27    4.7   105      7.5   793.5    0.00       0    999.0   14.4
  64   23:50   39.6    26    4.3   116      7.3   793.4    0.00       0    999.0   14.5
  65    0:00   39.7    25    4.6   116      7.1   793.4    0.00       0    999.0   14.5
  65    0:10   39.9    24    4.8   113      7.6   793.3    0.00       0    999.0   14.5
  65    0:20   39.9    24    4.4   106      8.3   793.3    0.00       0    999.0   14.6
  65    0:30   39.7    24    4.1   105      6.9   793.3    0.00       0    999.0   14.6
  65    0:40   40.0    23    4.6   104      6.5   793.2    0.00       0    999.0   14.5
  65    0:50   40.1    23    4.4   103      7.3   793.2    0.00       0    999.0   14.5
  65    1:00   40.0    22    4.0   102      6.9   793.2    0.00       0    999.0   14.6
  65    1:10   40.0    22    3.5    94      6.3   793.2    0.00       0    999.0   14.4
  65    1:20   40.2    21    3.1    94      6.0   793.2    0.00       0    999.0   14.5
  65    1:30   40.3    20    3.1    90      4.7   793.2    0.00       0    999.0   14.5
  65    1:40   40.5    19    2.6    90      4.2   793.3    0.00       0    999.0   14.5
  65    1:50   40.6    18    3.0    94      4.9   793.2    0.00       0    999.0   14.6
  65    2:00   40.5    18    3.3    93      5.0   793.1    0.00       0    999.0   14.5
  65    2:10   40.3    18    2.9    90      4.5   793.1    0.00       0    999.0   14.5
  65    2:20   40.1    18    3.0    86      4.5   793.0    0.00       0    999.0   14.5
  65    2:30   40.3    17    3.0    87      4.7   792.9    0.00       0    999.0   14.6
  65    2:40   40.2    17    3.0    85      4.3   792.8    0.00       0    999.0   14.4
  65    2:50   40.3    16    3.1    85      4.8   792.7    0.00       0    999.0   14.4
  65    3:00   40.5    15    2.9    86      4.6   792.7    0.00       0    999.0   14.5
  65    3:10   40.7    14    2.8    85      4.3   792.7    0.00       0    999.0   14.5
  65    3:20   40.7    13    2.8    84      3.7   792.6    0.00       0    999.0   14.4
  65    3:30   40.8    13    2.6    86      4.2   792.5    0.00       0    999.0   14.5
  65    3:40   40.7    12    2.6    85      3.4   792.5    0.00       0    999.0   14.5
  65    3:50   40.9    12    2.6    86      4.3   792.5    0.00       0    999.0   14.5
  65    4:00   41.1    11    2.4    88      3.5   792.5    0.00       0    999.0   14.6
  65    4:10   41.1    11    2.7    83      3.8   792.5    0.00       0    999.0   14.5
  65    4:20   40.9    11    2.5    91      3.5   792.5    0.00       0    999.0   14.6
  65    4:30   40.8    11    2.8    88      4.7   792.5    0.00       0    999.0   14.6
  65    4:40   40.8    11    3.0    84      5.0   792.5    0.00       0    999.0   14.5
  65    4:50   40.6    11    3.0    89      4.9   792.5    0.00       0    999.0   14.6
  65    5:00   40.7    11    3.1    90      5.3   792.5    0.00       0    999.0   14.6
  65    5:10   41.1    10    4.0   100      6.7   792.5    0.00       0    999.0   14.7
  65    5:20   41.0    11    4.2   100      6.4   792.5    0.00       0    999.0   14.5
  65    5:30   40.9    10    3.5    95      5.5   792.4    0.00       0    999.0   14.6
  65    5:40   40.9    10    3.4    97      6.4   792.4    0.00       0    999.0   14.5
  65    5:50   40.9    10    3.7    92      6.4   792.4    0.00       0    999.0   14.6
  65    6:00   41.2    10    4.1    99      7.5   792.5    0.00       0    999.0   14.7
  65    6:10   41.4     9    3.4   100      6.4   792.5    0.00       0    999.0   14.7
  65    6:20   41.9     8    3.5    91      7.7   792.4    0.00       1    999.0   14.5
  65    6:30   41.5     8    3.5   102      6.0   792.4    0.00       2    999.0   14.7
  65    6:40   41.5     8    2.7   105      4.4   792.5    0.00       7    999.0   14.7
  65    6:50   41.2     9    3.6   103      6.4   792.5    0.00      23    999.0   14.6
  65    7:00   41.7    10    4.1    98      7.8   792.6    0.00      31    999.0   14.4
  65    7:10   41.3    12    5.2    97      9.1   792.7    0.00      33    999.0   14.3
  65    7:20   41.0    13    6.1   100     10.2   792.8    0.00      40    999.0   14.2
  65    7:30   40.9    14    6.7    99     11.3   792.8    0.00      85    999.0   14.4
  65    7:40   41.4    16    6.0    92     11.3   792.9    0.00     125    999.0   14.1
  65    7:50   41.9    16    6.4    96     12.1   792.9    0.00     148    999.0   14.1
  65    8:00   42.3    16    6.3    92     12.2   793.0    0.00     171    999.0   14.1
  65    8:10   42.8    16    5.2    76     11.8   793.0    0.00     129    999.0   14.2
  65    8:20   43.6    15    5.2    93      8.8   793.0    0.00      57    999.0   14.2
  65    8:30   43.9    15    5.4    92      9.2   793.1    0.00      67    999.0   14.2

Return to Alpha graphs page.


Western Regional Climate Center,wrcc@dri.edu